ARG1612 SABE-SAZM
Flight info
| Callsign | ARG1612 |
|---|---|
| Flight time | 0h 42m |
| Altitude | 33000 |
| Route | PTA8 GBE UW29 VOTRA VOTRA2U |
| Aircraft | B738/M-SDE2E3FGHIRWXY/LB1 |
Departure
| Time | 2026-04-26 15:48 |
|---|---|
| Airport | Aeroparque Jorge Newbery (SABE) |
Arrival
| Time | 2026-04-26 16:31 |
|---|---|
| Airport | Ástor Piazzola International Airport (SAZM) |
| Time | Latitude | Longitude | Altitude | Speed | Heading |
|---|---|---|---|---|---|
| 2026-04-26 15:21 | -34.55859 | -58.41345 | 26 ft | 0 kts | 265° |
| 2026-04-26 15:28 | -34.55859 | -58.41342 | 25 ft | 0 kts | 266° |
| 2026-04-26 15:34 | -34.55858 | -58.41320 | 31 ft | 4 kts | 265° |
| 2026-04-26 15:35 | -34.55854 | -58.41289 | 30 ft | 2 kts | 257° |
| 2026-04-26 15:35 | -34.55851 | -58.41262 | 28 ft | 4 kts | 279° |
| 2026-04-26 15:35 | -34.55861 | -58.41233 | 29 ft | 4 kts | 308° |
| 2026-04-26 15:35 | -34.55866 | -58.41226 | 28 ft | 0 kts | 309° |
| 2026-04-26 15:39 | -34.55864 | -58.41228 | 25 ft | 2 kts | 309° |
| 2026-04-26 15:39 | -34.55857 | -58.41245 | 28 ft | 4 kts | 275° |
| 2026-04-26 15:40 | -34.55912 | -58.41304 | 25 ft | 10 kts | 176° |
| 2026-04-26 15:40 | -34.55957 | -58.41251 | 28 ft | 9 kts | 129° |
| 2026-04-26 15:40 | -34.55995 | -58.41190 | 25 ft | 9 kts | 126° |
| 2026-04-26 15:40 | -34.56033 | -58.41126 | 27 ft | 10 kts | 127° |
| 2026-04-26 15:41 | -34.56075 | -58.41060 | 27 ft | 10 kts | 128° |
| 2026-04-26 15:41 | -34.56118 | -58.40992 | 26 ft | 10 kts | 126° |
| 2026-04-26 15:41 | -34.56158 | -58.40916 | 26 ft | 11 kts | 120° |
| 2026-04-26 15:41 | -34.56184 | -58.40832 | 27 ft | 11 kts | 99° |
| 2026-04-26 15:42 | -34.56217 | -58.40750 | 26 ft | 11 kts | 124° |
| 2026-04-26 15:42 | -34.56260 | -58.40672 | 26 ft | 11 kts | 124° |
| 2026-04-26 15:42 | -34.56304 | -58.40593 | 29 ft | 12 kts | 127° |
| 2026-04-26 15:42 | -34.56361 | -58.40527 | 25 ft | 9 kts | 138° |
| 2026-04-26 15:43 | -34.56383 | -58.40503 | 28 ft | 3 kts | 138° |
| 2026-04-26 15:43 | -34.56400 | -58.40485 | 25 ft | 2 kts | 138° |
| 2026-04-26 15:43 | -34.56422 | -58.40461 | 29 ft | 0 kts | 138° |
| 2026-04-26 15:44 | -34.56423 | -58.40460 | 29 ft | 0 kts | 138° |
| 2026-04-26 15:45 | -34.56431 | -58.40451 | 25 ft | 3 kts | 138° |
| 2026-04-26 15:46 | -34.56477 | -58.40401 | 27 ft | 7 kts | 138° |
| 2026-04-26 15:46 | -34.56522 | -58.40384 | 28 ft | 7 kts | 199° |
| 2026-04-26 15:46 | -34.56558 | -58.40432 | 27 ft | 8 kts | 265° |
| 2026-04-26 15:46 | -34.56542 | -58.40473 | 25 ft | 8 kts | 304° |
| 2026-04-26 15:47 | -34.56538 | -58.40480 | 25 ft | 0 kts | 304° |
| 2026-04-26 15:47 | -34.56531 | -58.40493 | 27 ft | 8 kts | 304° |
| 2026-04-26 15:48 | -34.56349 | -58.40822 | 26 ft | 85 kts | 304° |
| 2026-04-26 15:48 | -34.55895 | -58.41639 | 25 ft | 146 kts | 304° |
| 2026-04-26 15:48 | -34.55256 | -58.42758 | 355 ft | 166 kts | 301° |
| 2026-04-26 15:48 | -34.54611 | -58.43905 | 1140 ft | 165 kts | 305° |
| 2026-04-26 15:49 | -34.53555 | -58.44688 | 1587 ft | 202 kts | 340° |
| 2026-04-26 15:49 | -34.52050 | -58.44430 | 1948 ft | 243 kts | 19° |
| 2026-04-26 15:49 | -34.50512 | -58.43329 | 2425 ft | 273 kts | 39° |
| 2026-04-26 15:49 | -34.49521 | -58.41342 | 3186 ft | 290 kts | 76° |
| 2026-04-26 15:50 | -34.49493 | -58.38887 | 3992 ft | 296 kts | 104° |
| 2026-04-26 15:50 | -34.50068 | -58.36482 | 4921 ft | 300 kts | 116° |
| 2026-04-26 15:50 | -34.50852 | -58.34098 | 5809 ft | 308 kts | 117° |
| 2026-04-26 15:50 | -34.51670 | -58.31661 | 6649 ft | 317 kts | 115° |
| 2026-04-26 15:51 | -34.52451 | -58.29121 | 7457 ft | 325 kts | 112° |
| 2026-04-26 15:51 | -34.53287 | -58.26556 | 8272 ft | 329 kts | 121° |
| 2026-04-26 15:51 | -34.54529 | -58.24263 | 9068 ft | 330 kts | 137° |
| 2026-04-26 15:51 | -34.56193 | -58.22379 | 9865 ft | 326 kts | 154° |
| 2026-04-26 15:52 | -34.58129 | -58.20839 | 10304 ft | 344 kts | 156° |
| 2026-04-26 15:52 | -34.60216 | -58.19230 | 10678 ft | 364 kts | 156° |
| 2026-04-26 15:52 | -34.62387 | -58.17555 | 11350 ft | 373 kts | 156° |
| 2026-04-26 15:52 | -34.63872 | -58.16531 | 11844 ft | 368 kts | 166° |
| 2026-04-26 15:53 | -34.67097 | -58.15625 | 12871 ft | 349 kts | 189° |
| 2026-04-26 15:53 | -34.69531 | -58.15495 | 13678 ft | 351 kts | 190° |
| 2026-04-26 15:53 | -34.71984 | -58.15376 | 14388 ft | 354 kts | 191° |
| 2026-04-26 15:53 | -34.74458 | -58.15260 | 15126 ft | 357 kts | 191° |
| 2026-04-26 15:54 | -34.76944 | -58.15141 | 15853 ft | 359 kts | 192° |
| 2026-04-26 15:54 | -34.79447 | -58.15016 | 16606 ft | 361 kts | 192° |
| 2026-04-26 15:54 | -34.81964 | -58.14884 | 17350 ft | 363 kts | 193° |
| 2026-04-26 15:54 | -34.84494 | -58.14748 | 18103 ft | 365 kts | 193° |
| 2026-04-26 15:55 | -34.87031 | -58.14612 | 18752 ft | 366 kts | 193° |
| 2026-04-26 15:55 | -34.89590 | -58.14480 | 19400 ft | 369 kts | 194° |
| 2026-04-26 15:55 | -34.92163 | -58.14351 | 20037 ft | 372 kts | 194° |
| 2026-04-26 15:55 | -34.94755 | -58.14219 | 20655 ft | 375 kts | 194° |
| 2026-04-26 15:56 | -34.97373 | -58.14086 | 21263 ft | 377 kts | 194° |
| 2026-04-26 15:56 | -34.99969 | -58.13954 | 21847 ft | 380 kts | 194° |
| 2026-04-26 15:56 | -35.02618 | -58.13817 | 22436 ft | 383 kts | 195° |
| 2026-04-26 15:56 | -35.05297 | -58.13677 | 23008 ft | 386 kts | 195° |
| 2026-04-26 15:57 | -35.07989 | -58.13537 | 23546 ft | 389 kts | 195° |
| 2026-04-26 15:57 | -35.10705 | -58.13395 | 23994 ft | 392 kts | 195° |
| 2026-04-26 15:57 | -35.13444 | -58.13254 | 24428 ft | 395 kts | 195° |
| 2026-04-26 15:57 | -35.15304 | -58.13159 | 24710 ft | 397 kts | 195° |
| 2026-04-26 15:58 | -35.18988 | -58.12970 | 25257 ft | 402 kts | 194° |
| 2026-04-26 15:58 | -35.21796 | -58.12823 | 25661 ft | 405 kts | 194° |
| 2026-04-26 15:58 | -35.24623 | -58.12672 | 26056 ft | 409 kts | 194° |
| 2026-04-26 15:58 | -35.27481 | -58.12518 | 26445 ft | 412 kts | 194° |
| 2026-04-26 15:59 | -35.30305 | -58.12368 | 26827 ft | 415 kts | 194° |
| 2026-04-26 15:59 | -35.33203 | -58.12215 | 27223 ft | 419 kts | 193° |
| 2026-04-26 15:59 | -35.35135 | -58.12113 | 27474 ft | 421 kts | 193° |
| 2026-04-26 15:59 | -35.38070 | -58.11963 | 27862 ft | 424 kts | 193° |
| 2026-04-26 16:00 | -35.42030 | -58.11760 | 28369 ft | 428 kts | 193° |
| 2026-04-26 16:00 | -35.44004 | -58.11659 | 28622 ft | 430 kts | 193° |
| 2026-04-26 16:00 | -35.47004 | -58.11501 | 28995 ft | 433 kts | 192° |
| 2026-04-26 16:00 | -35.50028 | -58.11339 | 29335 ft | 436 kts | 192° |
| 2026-04-26 16:01 | -35.53069 | -58.11176 | 29695 ft | 439 kts | 192° |
| 2026-04-26 16:01 | -35.56133 | -58.11014 | 30009 ft | 442 kts | 192° |
| 2026-04-26 16:01 | -35.59220 | -58.10851 | 30277 ft | 445 kts | 191° |
| 2026-04-26 16:01 | -35.62325 | -58.10688 | 30542 ft | 448 kts | 191° |
| 2026-04-26 16:02 | -35.65452 | -58.10524 | 30800 ft | 451 kts | 191° |
| 2026-04-26 16:02 | -35.68592 | -58.10361 | 31052 ft | 454 kts | 191° |
| 2026-04-26 16:02 | -35.71762 | -58.10194 | 31307 ft | 456 kts | 191° |
| 2026-04-26 16:02 | -35.73906 | -58.10078 | 31471 ft | 458 kts | 191° |
| 2026-04-26 16:03 | -35.78126 | -58.09847 | 31931 ft | 458 kts | 191° |
| 2026-04-26 16:03 | -35.81310 | -58.09673 | 32271 ft | 459 kts | 191° |
| 2026-04-26 16:03 | -35.84501 | -58.09499 | 32604 ft | 459 kts | 190° |
| 2026-04-26 16:03 | -35.87692 | -58.09329 | 32806 ft | 459 kts | 190° |
| 2026-04-26 16:04 | -35.90846 | -58.09152 | 32840 ft | 448 kts | 190° |
| 2026-04-26 16:04 | -35.97005 | -58.08806 | 32837 ft | 440 kts | 191° |
| 2026-04-26 16:05 | -36.03132 | -58.08503 | 32830 ft | 440 kts | 191° |
| 2026-04-26 16:05 | -36.09248 | -58.08195 | 32831 ft | 441 kts | 190° |
| 2026-04-26 16:06 | -36.15385 | -58.07869 | 32823 ft | 441 kts | 190° |
| 2026-04-26 16:06 | -36.21521 | -58.07533 | 32808 ft | 441 kts | 189° |
| 2026-04-26 16:06 | -36.24595 | -58.07367 | 32568 ft | 442 kts | 189° |
| 2026-04-26 16:07 | -36.27664 | -58.07202 | 32321 ft | 442 kts | 189° |
| 2026-04-26 16:07 | -36.30736 | -58.07037 | 32054 ft | 441 kts | 189° |
| 2026-04-26 16:07 | -36.33796 | -58.06871 | 31811 ft | 440 kts | 189° |
| 2026-04-26 16:07 | -36.36845 | -58.06704 | 31562 ft | 438 kts | 189° |
| 2026-04-26 16:08 | -36.39845 | -58.06539 | 31334 ft | 436 kts | 189° |
| 2026-04-26 16:08 | -36.42906 | -58.06371 | 31085 ft | 434 kts | 188° |
| 2026-04-26 16:08 | -36.45917 | -58.06207 | 30846 ft | 431 kts | 188° |
| 2026-04-26 16:08 | -36.48909 | -58.06047 | 30526 ft | 430 kts | 188° |
| 2026-04-26 16:09 | -36.51846 | -58.05888 | 30115 ft | 426 kts | 188° |
| 2026-04-26 16:09 | -36.54815 | -58.05363 | 29649 ft | 440 kts | 173° |
| 2026-04-26 16:09 | -36.57711 | -58.04009 | 29143 ft | 445 kts | 167° |
| 2026-04-26 16:09 | -36.60563 | -58.02552 | 28639 ft | 441 kts | 166° |
| 2026-04-26 16:10 | -36.63381 | -58.01093 | 28148 ft | 437 kts | 166° |
| 2026-04-26 16:10 | -36.66172 | -57.99637 | 27650 ft | 433 kts | 166° |
| 2026-04-26 16:10 | -36.68937 | -57.98193 | 27175 ft | 429 kts | 165° |
| 2026-04-26 16:10 | -36.71674 | -57.96768 | 26707 ft | 424 kts | 165° |
| 2026-04-26 16:11 | -36.74389 | -57.95362 | 26244 ft | 421 kts | 165° |
| 2026-04-26 16:11 | -36.77080 | -57.93971 | 25776 ft | 417 kts | 165° |
| 2026-04-26 16:11 | -36.79750 | -57.92589 | 25335 ft | 414 kts | 165° |
| 2026-04-26 16:11 | -36.82404 | -57.91218 | 24891 ft | 411 kts | 164° |
| 2026-04-26 16:12 | -36.85036 | -57.89860 | 24461 ft | 408 kts | 164° |
| 2026-04-26 16:12 | -36.87647 | -57.88513 | 24015 ft | 405 kts | 163° |
| 2026-04-26 16:12 | -36.92816 | -57.85835 | 23145 ft | 399 kts | 163° |
| 2026-04-26 16:13 | -36.95375 | -57.84509 | 22636 ft | 396 kts | 163° |
| 2026-04-26 16:13 | -36.97882 | -57.83208 | 22116 ft | 394 kts | 162° |
| 2026-04-26 16:13 | -37.00404 | -57.81898 | 21627 ft | 391 kts | 162° |
| 2026-04-26 16:13 | -37.02941 | -57.80577 | 21134 ft | 389 kts | 162° |
| 2026-04-26 16:14 | -37.05400 | -57.79294 | 20662 ft | 386 kts | 162° |
| 2026-04-26 16:14 | -37.07869 | -57.78006 | 20177 ft | 383 kts | 162° |
| 2026-04-26 16:14 | -37.12755 | -57.75455 | 19256 ft | 378 kts | 162° |
| 2026-04-26 16:15 | -37.15173 | -57.74190 | 18801 ft | 375 kts | 162° |
| 2026-04-26 16:15 | -37.17577 | -57.72932 | 18349 ft | 372 kts | 162° |
| 2026-04-26 16:15 | -37.19961 | -57.71680 | 17898 ft | 370 kts | 162° |
| 2026-04-26 16:16 | -37.24683 | -57.69200 | 16905 ft | 366 kts | 162° |
| 2026-04-26 16:16 | -37.27025 | -57.67973 | 16405 ft | 364 kts | 162° |
| 2026-04-26 16:16 | -37.29356 | -57.66750 | 15927 ft | 362 kts | 162° |
| 2026-04-26 16:16 | -37.31671 | -57.65533 | 15458 ft | 360 kts | 162° |
| 2026-04-26 16:17 | -37.33945 | -57.64337 | 15001 ft | 358 kts | 162° |
| 2026-04-26 16:17 | -37.36243 | -57.63129 | 14533 ft | 356 kts | 162° |
| 2026-04-26 16:17 | -37.38524 | -57.61928 | 14084 ft | 355 kts | 161° |
| 2026-04-26 16:17 | -37.40794 | -57.60734 | 13637 ft | 353 kts | 161° |
| 2026-04-26 16:18 | -37.43054 | -57.59546 | 13161 ft | 351 kts | 161° |
| 2026-04-26 16:18 | -37.47525 | -57.57187 | 12171 ft | 346 kts | 161° |
| 2026-04-26 16:19 | -37.51940 | -57.54860 | 11234 ft | 341 kts | 162° |
| 2026-04-26 16:19 | -37.54119 | -57.53712 | 10765 ft | 338 kts | 162° |
| 2026-04-26 16:19 | -37.57728 | -57.51802 | 10004 ft | 332 kts | 162° |
| 2026-04-26 16:20 | -37.60484 | -57.50332 | 9395 ft | 317 kts | 162° |
| 2026-04-26 16:20 | -37.64418 | -57.48240 | 8425 ft | 297 kts | 162° |
| 2026-04-26 16:20 | -37.66299 | -57.47243 | 7955 ft | 290 kts | 162° |
| 2026-04-26 16:21 | -37.68158 | -57.46257 | 7491 ft | 290 kts | 162° |
| 2026-04-26 16:21 | -37.70026 | -57.45269 | 7023 ft | 291 kts | 162° |
| 2026-04-26 16:21 | -37.71890 | -57.44282 | 6571 ft | 291 kts | 162° |
| 2026-04-26 16:21 | -37.73751 | -57.43294 | 6124 ft | 290 kts | 162° |
| 2026-04-26 16:22 | -37.75589 | -57.42315 | 5648 ft | 282 kts | 162° |
| 2026-04-26 16:22 | -37.77373 | -57.41362 | 5177 ft | 276 kts | 162° |
| 2026-04-26 16:22 | -37.79145 | -57.40418 | 4714 ft | 276 kts | 162° |
| 2026-04-26 16:22 | -37.80914 | -57.39478 | 4256 ft | 276 kts | 162° |
| 2026-04-26 16:23 | -37.82687 | -57.38538 | 3777 ft | 276 kts | 162° |
| 2026-04-26 16:23 | -37.84451 | -57.37602 | 3315 ft | 275 kts | 162° |
| 2026-04-26 16:23 | -37.86198 | -57.36671 | 3025 ft | 268 kts | 162° |
| 2026-04-26 16:23 | -37.87909 | -57.35758 | 3005 ft | 267 kts | 161° |
| 2026-04-26 16:24 | -37.89611 | -57.34847 | 3003 ft | 259 kts | 162° |
| 2026-04-26 16:24 | -37.91207 | -57.33988 | 3002 ft | 242 kts | 162° |
| 2026-04-26 16:24 | -37.92772 | -57.33358 | 3009 ft | 232 kts | 177° |
| 2026-04-26 16:24 | -37.94354 | -57.33358 | 3007 ft | 224 kts | 195° |
| 2026-04-26 16:25 | -37.95814 | -57.33931 | 2870 ft | 217 kts | 211° |
| 2026-04-26 16:25 | -37.97077 | -57.34949 | 2622 ft | 211 kts | 220° |
| 2026-04-26 16:25 | -37.98266 | -57.35999 | 2516 ft | 207 kts | 219° |
| 2026-04-26 16:25 | -37.99448 | -57.37021 | 2412 ft | 199 kts | 218° |
| 2026-04-26 16:26 | -38.00547 | -57.37967 | 2349 ft | 186 kts | 219° |
| 2026-04-26 16:26 | -38.01235 | -57.38604 | 2252 ft | 176 kts | 226° |
| 2026-04-26 16:26 | -38.01780 | -57.40329 | 2107 ft | 154 kts | 273° |
| 2026-04-26 16:26 | -38.01423 | -57.41529 | 2002 ft | 141 kts | 299° |
| 2026-04-26 16:27 | -38.00902 | -57.42538 | 1906 ft | 134 kts | 298° |
| 2026-04-26 16:27 | -38.00412 | -57.43507 | 1813 ft | 128 kts | 297° |
| 2026-04-26 16:27 | -37.99936 | -57.44450 | 1758 ft | 126 kts | 297° |
| 2026-04-26 16:27 | -37.99467 | -57.45377 | 1708 ft | 123 kts | 296° |
| 2026-04-26 16:28 | -37.99007 | -57.46290 | 1711 ft | 123 kts | 297° |
| 2026-04-26 16:28 | -37.98545 | -57.47205 | 1703 ft | 124 kts | 296° |
| 2026-04-26 16:28 | -37.98079 | -57.48132 | 1592 ft | 125 kts | 296° |
| 2026-04-26 16:28 | -37.97609 | -57.49059 | 1419 ft | 125 kts | 297° |
| 2026-04-26 16:29 | -37.97136 | -57.49994 | 1246 ft | 126 kts | 298° |
| 2026-04-26 16:29 | -37.96663 | -57.50927 | 1072 ft | 125 kts | 300° |
| 2026-04-26 16:29 | -37.96191 | -57.51860 | 896 ft | 127 kts | 301° |
| 2026-04-26 16:29 | -37.95711 | -57.52803 | 773 ft | 127 kts | 302° |
| 2026-04-26 16:30 | -37.95243 | -57.53723 | 641 ft | 121 kts | 299° |
| 2026-04-26 16:30 | -37.94794 | -57.54604 | 488 ft | 118 kts | 300° |
| 2026-04-26 16:30 | -37.94349 | -57.55481 | 311 ft | 120 kts | 300° |
| 2026-04-26 16:30 | -37.93897 | -57.56363 | 87 ft | 118 kts | 297° |
| 2026-04-26 16:31 | -37.93518 | -57.57137 | 51 ft | 81 kts | 303° |
| 2026-04-26 16:31 | -37.93290 | -57.57586 | 49 ft | 42 kts | 302° |
| 2026-04-26 16:31 | -37.93155 | -57.57849 | 54 ft | 23 kts | 303° |
| 2026-04-26 16:31 | -37.93141 | -57.57964 | 51 ft | 11 kts | 223° |
| 2026-04-26 16:32 | -37.93183 | -57.58002 | 54 ft | 8 kts | 212° |
| 2026-04-26 16:32 | -37.93215 | -57.58027 | 54 ft | 8 kts | 212° |
| 2026-04-26 16:32 | -37.93285 | -57.58029 | 54 ft | 7 kts | 159° |
| 2026-04-26 16:32 | -37.93338 | -57.58024 | 54 ft | 8 kts | 184° |
| 2026-04-26 16:33 | -37.93394 | -57.58039 | 54 ft | 8 kts | 204° |
| 2026-04-26 16:33 | -37.93429 | -57.58082 | 51 ft | 6 kts | 263° |
| 2026-04-26 16:33 | -37.93415 | -57.58099 | 54 ft | 1 kts | 338° |
| 2026-04-26 16:33 | -37.93414 | -57.58098 | 54 ft | 0 kts | 351° |
| 2026-04-26 16:34 | -37.93410 | -57.58096 | 50 ft | 1 kts | 7° |
| 2026-04-26 16:34 | -37.93404 | -57.58092 | 51 ft | 0 kts | 30° |
| 2026-04-26 16:34 | -37.93397 | -57.58087 | 54 ft | 1 kts | 28° |
| 2026-04-26 16:34 | -37.93393 | -57.58084 | 54 ft | 1 kts | 28° |
| 2026-04-26 16:35 | -37.93390 | -57.58082 | 54 ft | 0 kts | 28° |
| 2026-04-26 16:35 | -37.93389 | -57.58082 | 54 ft | 0 kts | 28° |